createdAt,value
2018-02-21T00:00:06.822Z,1018.29
2018-02-21T00:00:47.444Z,1018.27
2018-02-21T00:01:28.245Z,1018.33
2018-02-21T00:02:08.494Z,1018.35
2018-02-21T00:02:49.044Z,1018.3
2018-02-21T00:03:29.586Z,1018.32
2018-02-21T00:04:10.141Z,1018.36
2018-02-21T00:04:50.695Z,1018.38
2018-02-21T00:05:31.296Z,1018.29
2018-02-21T00:06:11.842Z,1018.32
2018-02-21T00:06:52.403Z,1018.36
2018-02-21T00:07:32.944Z,1018.33
2018-02-21T00:08:13.566Z,1018.32
2018-02-21T00:08:54.094Z,1018.37
2018-02-21T00:09:34.638Z,1018.37
2018-02-21T00:10:15.198Z,1018.37
2018-02-21T00:10:55.767Z,1018.34
2018-02-21T00:11:36.314Z,1018.37
2018-02-21T00:12:16.868Z,1018.4
2018-02-21T00:12:57.423Z,1018.39
2018-02-21T00:13:37.967Z,1018.41
2018-02-21T00:14:18.528Z,1018.43
2018-02-21T00:14:59.066Z,1018.42
2018-02-21T00:15:39.621Z,1018.45
2018-02-21T00:16:20.221Z,1018.39
2018-02-21T00:17:00.772Z,1018.45
2018-02-21T00:17:41.332Z,1018.41
2018-02-21T00:18:21.914Z,1018.49
2018-02-21T00:19:02.466Z,1018.44
2018-02-21T00:19:42.994Z,1018.46
2018-02-21T00:20:23.554Z,1018.47
2018-02-21T00:21:04.104Z,1018.43
2018-02-21T00:21:44.651Z,1018.46
2018-02-21T00:22:25.213Z,1018.46
2018-02-21T00:23:05.779Z,1018.42
2018-02-21T00:23:46.384Z,1018.48
2018-02-21T00:24:26.903Z,1018.56
2018-02-21T00:25:07.441Z,1018.51
2018-02-21T00:25:47.991Z,1018.53
2018-02-21T00:26:28.522Z,1018.49
2018-02-21T00:27:09.077Z,1018.5
2018-02-21T00:27:49.609Z,1018.52
2018-02-21T00:28:30.160Z,1018.52
2018-02-21T00:29:10.758Z,1018.5
2018-02-21T00:29:51.328Z,1018.54
2018-02-21T00:30:31.867Z,1018.53
2018-02-21T00:31:12.523Z,1018.53
2018-02-21T00:31:52.985Z,1018.5
2018-02-21T00:32:33.529Z,1018.52
2018-02-21T00:33:14.090Z,1018.48
2018-02-21T00:33:54.666Z,1018.48
2018-02-21T00:34:35.219Z,1018.41
2018-02-21T00:35:15.759Z,1018.51
2018-02-21T00:35:56.309Z,1018.5
2018-02-21T00:36:36.869Z,1018.49
2018-02-21T00:37:17.398Z,1018.48
2018-02-21T00:37:57.963Z,1018.5
2018-02-21T00:38:38.502Z,1018.51
2018-02-21T00:39:19.062Z,1018.52
2018-02-21T00:39:59.600Z,1018.55
2018-02-21T00:40:40.149Z,1018.56
2018-02-21T00:41:20.705Z,1018.55
2018-02-21T00:42:01.251Z,1018.56
2018-02-21T00:42:41.802Z,1018.52
2018-02-21T00:43:22.334Z,1018.55
2018-02-21T00:44:02.883Z,1018.55
2018-02-21T00:44:43.429Z,1018.56
2018-02-21T00:45:23.978Z,1018.56
2018-02-21T00:46:04.529Z,1018.55
2018-02-21T00:46:45.109Z,1018.56
2018-02-21T00:47:25.661Z,1018.6
2018-02-21T00:48:06.230Z,1018.58
2018-02-21T00:48:46.761Z,1018.57
2018-02-21T00:49:27.310Z,1018.57
2018-02-21T00:50:07.876Z,1018.6
2018-02-21T00:50:48.392Z,1018.58
2018-02-21T00:51:28.918Z,1018.63
2018-02-21T00:52:09.506Z,1018.57
2018-02-21T00:52:50.004Z,1018.61
2018-02-21T00:53:30.562Z,1018.57
2018-02-21T00:54:11.124Z,1018.65
2018-02-21T00:54:51.649Z,1018.62
2018-02-21T00:55:32.199Z,1018.59
2018-02-21T00:56:12.739Z,1018.6
2018-02-21T00:56:53.314Z,1018.6
2018-02-21T00:57:33.886Z,1018.62
2018-02-21T00:58:14.431Z,1018.6
2018-02-21T00:58:54.987Z,1018.6
2018-02-21T00:59:35.543Z,1018.6
2018-02-21T01:00:16.150Z,1018.56
2018-02-21T01:00:56.703Z,1018.61
2018-02-21T01:01:37.274Z,1018.59
2018-02-21T01:02:17.828Z,1018.52
2018-02-21T01:02:58.386Z,1018.56
2018-02-21T01:03:38.942Z,1018.59
2018-02-21T01:04:19.587Z,1018.57
2018-02-21T01:05:00.082Z,1018.56
2018-02-21T01:05:40.647Z,1018.57
2018-02-21T01:06:21.187Z,1018.59
2018-02-21T01:07:01.756Z,1018.58
2018-02-21T01:07:42.304Z,1018.59
2018-02-21T01:08:22.854Z,1018.61
2018-02-21T01:09:03.398Z,1018.57
2018-02-21T01:09:43.955Z,1018.61
2018-02-21T01:10:24.504Z,1018.58
2018-02-21T01:11:05.062Z,1018.6
2018-02-21T01:11:45.614Z,1018.61
2018-02-21T01:12:26.248Z,1018.62
2018-02-21T01:13:06.762Z,1018.64
2018-02-21T01:13:47.308Z,1018.6
2018-02-21T01:14:27.858Z,1018.58
2018-02-21T01:15:08.412Z,1018.62
2018-02-21T01:15:48.983Z,1018.61
2018-02-21T01:16:29.601Z,1018.57
2018-02-21T01:17:10.154Z,1018.64
2018-02-21T01:17:50.709Z,1018.61
2018-02-21T01:18:31.281Z,1018.61
2018-02-21T01:19:11.832Z,1018.61
2018-02-21T01:19:52.390Z,1018.65
2018-02-21T01:20:32.948Z,1018.66
2018-02-21T01:21:13.500Z,1018.66
2018-02-21T01:21:54.033Z,1018.69
2018-02-21T01:22:34.583Z,1018.7
2018-02-21T01:23:15.145Z,1018.62
2018-02-21T01:23:55.724Z,1018.69
2018-02-21T01:24:36.298Z,1018.68
2018-02-21T01:25:16.826Z,1018.65
2018-02-21T01:25:57.393Z,1018.72
2018-02-21T01:26:37.969Z,1018.72
2018-02-21T01:27:18.531Z,1018.68
2018-02-21T01:27:59.136Z,1018.69
2018-02-21T01:28:39.700Z,1018.72
2018-02-21T01:29:20.254Z,1018.74
2018-02-21T01:30:00.801Z,1018.7
2018-02-21T01:30:41.351Z,1018.71
2018-02-21T01:31:21.924Z,1018.7
2018-02-21T01:32:02.482Z,1018.72
2018-02-21T01:32:43.038Z,1018.73
2018-02-21T01:33:23.594Z,1018.75
2018-02-21T01:34:04.114Z,1018.72
2018-02-21T01:34:44.733Z,1018.74
2018-02-21T01:35:25.286Z,1018.74
2018-02-21T01:36:05.918Z,1018.75
2018-02-21T01:36:46.395Z,1018.74
2018-02-21T01:37:26.966Z,1018.74
2018-02-21T01:38:07.528Z,1018.72
2018-02-21T01:38:48.083Z,1018.74
2018-02-21T01:39:28.639Z,1018.77
2018-02-21T01:40:09.196Z,1018.73
2018-02-21T01:40:49.738Z,1018.73
2018-02-21T01:41:30.292Z,1018.75
2018-02-21T01:42:10.856Z,1018.72
2018-02-21T01:42:51.415Z,1018.75
2018-02-21T01:43:31.992Z,1018.76
2018-02-21T01:44:12.558Z,1018.72
2018-02-21T01:44:53.089Z,1018.82
2018-02-21T01:45:33.630Z,1018.75
2018-02-21T01:46:14.184Z,1018.76
2018-02-21T01:46:54.735Z,1018.75
2018-02-21T01:47:35.274Z,1018.75
2018-02-21T01:48:15.883Z,1018.74
2018-02-21T01:48:56.425Z,1018.78
2018-02-21T01:49:36.952Z,1018.77
2018-02-21T01:50:17.520Z,1018.8
2018-02-21T01:50:58.074Z,1018.77
2018-02-21T01:51:38.618Z,1018.78
2018-02-21T01:52:19.215Z,1018.8
2018-02-21T01:52:59.772Z,1018.8
2018-02-21T01:53:40.332Z,1018.81
2018-02-21T01:54:20.905Z,1018.78
2018-02-21T01:55:01.456Z,1018.82
2018-02-21T01:55:42.006Z,1018.8
2018-02-21T01:56:22.556Z,1018.79
2018-02-21T01:57:03.124Z,1018.81
2018-02-21T01:57:43.682Z,1018.78
2018-02-21T01:58:24.207Z,1018.76
2018-02-21T01:59:04.776Z,1018.79
2018-02-21T01:59:45.396Z,1018.74
2018-02-21T02:00:25.946Z,1018.8
2018-02-21T02:01:06.547Z,1018.83
2018-02-21T02:01:47.096Z,1018.78
2018-02-21T02:02:27.677Z,1018.83
2018-02-21T02:03:08.238Z,1018.81
2018-02-21T02:03:48.795Z,1018.84
2018-02-21T02:04:29.351Z,1018.85
2018-02-21T02:05:09.890Z,1018.83
2018-02-21T02:05:50.450Z,1018.86
2018-02-21T02:06:31.004Z,1018.89
2018-02-21T02:07:11.561Z,1018.88
2018-02-21T02:07:52.126Z,1018.91
2018-02-21T02:08:32.694Z,1018.9
2018-02-21T02:09:13.231Z,1018.94
2018-02-21T02:09:53.867Z,1018.91
2018-02-21T02:10:34.409Z,1018.92
2018-02-21T02:11:14.962Z,1018.94
2018-02-21T02:11:55.513Z,1018.96
2018-02-21T02:12:36.075Z,1018.89
2018-02-21T02:13:16.628Z,1018.95
2018-02-21T02:13:57.188Z,1018.93
2018-02-21T02:14:37.736Z,1018.98
2018-02-21T02:15:18.285Z,1018.95
2018-02-21T02:15:58.841Z,1018.96
2018-02-21T02:16:39.403Z,1018.98
2018-02-21T02:17:19.966Z,1018.97
2018-02-21T02:18:00.533Z,1018.92
2018-02-21T02:18:41.126Z,1018.97
2018-02-21T02:19:21.672Z,1018.97
2018-02-21T02:20:02.252Z,1018.93
2018-02-21T02:20:42.799Z,1018.95
2018-02-21T02:21:23.355Z,1018.94
2018-02-21T02:22:03.940Z,1018.92
2018-02-21T02:22:44.488Z,1018.98
2018-02-21T02:23:25.040Z,1018.95
2018-02-21T02:24:05.594Z,1018.96
2018-02-21T02:24:46.142Z,1018.96
2018-02-21T02:25:26.713Z,1018.95
2018-02-21T02:26:07.291Z,1018.97
2018-02-21T02:26:47.858Z,1018.93
2018-02-21T02:27:28.420Z,1018.96
2018-02-21T02:28:08.964Z,1018.98
2018-02-21T02:28:49.563Z,1018.99
2018-02-21T02:29:30.097Z,1018.98
2018-02-21T02:30:10.656Z,1019
2018-02-21T02:30:51.257Z,1019.01
2018-02-21T02:31:31.816Z,1019.02
2018-02-21T02:32:12.382Z,1019.04
2018-02-21T02:32:52.923Z,1019.02
2018-02-21T02:33:33.475Z,1019
2018-02-21T02:34:14.021Z,1019.03
2018-02-21T02:34:54.569Z,1019.07
2018-02-21T02:35:35.122Z,1019.07
2018-02-21T02:36:15.677Z,1019.09
2018-02-21T02:36:56.274Z,1019.09
2018-02-21T02:37:36.814Z,1019.03
2018-02-21T02:38:17.373Z,1019.06
2018-02-21T02:38:57.926Z,1019.04
2018-02-21T02:39:38.470Z,1019.03
2018-02-21T02:40:19.019Z,1018.99
2018-02-21T02:40:59.612Z,1019.08
2018-02-21T02:41:40.165Z,1019.06
2018-02-21T02:42:20.694Z,1019.1
2018-02-21T02:43:01.242Z,1019.04
2018-02-21T02:43:41.900Z,1019.07
2018-02-21T02:44:22.468Z,1019.01
2018-02-21T02:45:03.021Z,1019.07
2018-02-21T02:45:43.549Z,1019.03
2018-02-21T02:46:24.143Z,1019.03
2018-02-21T02:47:04.717Z,1019.06
2018-02-21T02:47:45.286Z,1019.02
2018-02-21T02:48:25.884Z,1019.07
2018-02-21T02:49:06.433Z,1018.98
2018-02-21T02:49:46.990Z,1019.02
2018-02-21T02:50:27.546Z,1019.01
2018-02-21T02:51:08.096Z,1018.99
2018-02-21T02:51:48.655Z,1019.05
2018-02-21T02:52:29.248Z,1018.99
2018-02-21T02:53:09.798Z,1019.02
2018-02-21T02:53:50.358Z,1018.99
2018-02-21T02:54:30.939Z,1019.01
2018-02-21T02:55:11.500Z,1018.94
2018-02-21T02:55:52.094Z,1018.98
2018-02-21T02:56:32.669Z,1019.04
2018-02-21T02:57:13.223Z,1018.98
2018-02-21T02:57:53.764Z,1018.98
2018-02-21T02:58:34.330Z,1018.98
2018-02-21T02:59:14.877Z,1019
2018-02-21T02:59:55.428Z,1018.99
2018-02-21T03:00:36.017Z,1018.99
2018-02-21T03:01:16.580Z,1018.96
2018-02-21T03:01:57.150Z,1019.04
2018-02-21T03:02:37.707Z,1019.02
2018-02-21T03:03:18.250Z,1019.1
2018-02-21T03:03:58.802Z,1019.02
2018-02-21T03:04:39.370Z,1019.04
2018-02-21T03:05:19.936Z,1019.01
2018-02-21T03:06:00.487Z,1018.99
2018-02-21T03:06:41.040Z,1018.97
2018-02-21T03:07:21.587Z,1019.02
2018-02-21T03:08:02.141Z,1018.97
2018-02-21T03:08:42.710Z,1018.96
2018-02-21T03:09:23.274Z,1019.01
2018-02-21T03:10:03.830Z,1018.98
2018-02-21T03:10:44.403Z,1018.98
2018-02-21T03:11:24.969Z,1018.96
2018-02-21T03:12:05.556Z,1018.95
2018-02-21T03:12:46.100Z,1018.94
2018-02-21T03:13:26.652Z,1018.96
2018-02-21T03:14:07.187Z,1018.93
2018-02-21T03:14:47.753Z,1018.96
2018-02-21T03:15:28.304Z,1018.97
2018-02-21T03:16:08.885Z,1018.92
2018-02-21T03:16:49.447Z,1018.98
2018-02-21T03:17:29.959Z,1018.97
2018-02-21T03:18:10.534Z,1018.96
2018-02-21T03:18:51.069Z,1018.98
2018-02-21T03:19:31.610Z,1018.97
2018-02-21T03:20:12.170Z,1018.99
2018-02-21T03:20:52.733Z,1019.03
2018-02-21T03:21:33.289Z,1019.01
2018-02-21T03:22:13.843Z,1019.04
2018-02-21T03:22:54.415Z,1019.09
2018-02-21T03:23:34.971Z,1019.1
2018-02-21T03:24:15.516Z,1019.08
2018-02-21T03:24:56.059Z,1019.09
2018-02-21T03:25:36.622Z,1019.13
2018-02-21T03:26:17.171Z,1019.08
2018-02-21T03:26:57.707Z,1019.11
2018-02-21T03:27:38.256Z,1019.13
2018-02-21T03:28:18.815Z,1019.16
2018-02-21T03:28:59.349Z,1019.15
2018-02-21T03:29:39.886Z,1019.17
2018-02-21T03:30:20.431Z,1019.1
2018-02-21T03:31:00.984Z,1019.07
2018-02-21T03:31:41.536Z,1019.11
2018-02-21T03:32:22.066Z,1019.12
2018-02-21T03:33:02.627Z,1019.09
2018-02-21T03:33:43.179Z,1019.1
2018-02-21T03:34:23.726Z,1019.12
2018-02-21T03:35:04.458Z,1019.11
2018-02-21T03:35:45.009Z,1019.03
2018-02-21T03:36:25.580Z,1019.09
2018-02-21T03:37:06.241Z,1019.08
2018-02-21T03:37:46.796Z,1019.05
2018-02-21T03:38:27.404Z,1019.07
2018-02-21T03:39:07.966Z,1019.09
2018-02-21T03:39:48.526Z,1019.08
2018-02-21T03:40:29.083Z,1019.04
2018-02-21T03:41:09.644Z,1019.05
2018-02-21T03:41:50.202Z,1019.07
2018-02-21T03:42:30.747Z,1019.01
2018-02-21T03:43:11.283Z,1019.07
2018-02-21T03:43:51.864Z,1019.03
2018-02-21T03:44:32.418Z,1019.07
2018-02-21T03:45:12.970Z,1019.06
2018-02-21T03:45:53.525Z,1019.07
2018-02-21T03:46:34.061Z,1019.05
2018-02-21T03:47:14.786Z,1019.04
2018-02-21T03:47:55.362Z,1019.07
2018-02-21T03:48:35.927Z,1019.02
2018-02-21T03:49:16.474Z,1019.01
2018-02-21T03:49:57.032Z,1019.02
2018-02-21T03:50:37.604Z,1019.01
2018-02-21T03:51:18.155Z,1018.97
2018-02-21T03:51:58.698Z,1019.02
2018-02-21T03:52:39.251Z,1019.01
2018-02-21T03:53:19.860Z,1018.98
2018-02-21T03:54:00.424Z,1018.95
2018-02-21T03:54:41.100Z,1018.96
2018-02-21T03:55:21.636Z,1018.96
2018-02-21T03:56:02.173Z,1018.94
2018-02-21T03:56:42.743Z,1018.93
2018-02-21T03:57:23.294Z,1018.96
2018-02-21T03:58:03.834Z,1018.96
2018-02-21T03:58:44.393Z,1018.84
2018-02-21T03:59:24.934Z,1018.81
2018-02-21T04:00:05.515Z,1018.85
2018-02-21T04:00:46.075Z,1018.84
2018-02-21T04:01:26.619Z,1018.85
2018-02-21T04:02:07.164Z,1018.84
2018-02-21T04:02:47.720Z,1018.85
2018-02-21T04:03:28.246Z,1018.82
2018-02-21T04:04:08.797Z,1018.77
2018-02-21T04:04:49.369Z,1018.8
2018-02-21T04:05:29.929Z,1018.78
2018-02-21T04:06:10.498Z,1018.77
2018-02-21T04:06:51.054Z,1018.78
2018-02-21T04:07:31.606Z,1018.75
2018-02-21T04:08:12.157Z,1018.79
2018-02-21T04:08:52.685Z,1018.77
2018-02-21T04:09:33.249Z,1018.78
2018-02-21T04:10:13.782Z,1018.78
2018-02-21T04:10:54.325Z,1018.82
2018-02-21T04:11:34.915Z,1018.84
2018-02-21T04:12:15.448Z,1018.8
2018-02-21T04:12:55.983Z,1018.87
2018-02-21T04:13:36.574Z,1018.86
2018-02-21T04:14:17.117Z,1018.84
2018-02-21T04:14:57.669Z,1018.82
2018-02-21T04:15:38.220Z,1018.81
2018-02-21T04:16:18.785Z,1018.85
2018-02-21T04:16:59.340Z,1018.84
2018-02-21T04:17:39.883Z,1018.85
2018-02-21T04:18:20.444Z,1018.8
2018-02-21T04:19:00.989Z,1018.85
2018-02-21T04:19:41.537Z,1018.8
2018-02-21T04:20:22.098Z,1018.81
2018-02-21T04:21:02.696Z,1018.81
2018-02-21T04:21:43.295Z,1018.83
2018-02-21T04:22:23.804Z,1018.81
2018-02-21T04:23:04.368Z,1018.82
2018-02-21T04:23:44.950Z,1018.82
2018-02-21T04:24:25.496Z,1018.81
2018-02-21T04:25:06.138Z,1018.84
2018-02-21T04:25:46.658Z,1018.86
2018-02-21T04:26:27.219Z,1018.84
2018-02-21T04:27:07.752Z,1018.88
2018-02-21T04:27:48.286Z,1018.95
2018-02-21T04:28:28.874Z,1018.89
2018-02-21T04:29:09.476Z,1018.9
2018-02-21T04:29:50.025Z,1018.99
2018-02-21T04:30:30.560Z,1018.98
2018-02-21T04:31:11.119Z,1018.94
2018-02-21T04:31:51.685Z,1019.04
2018-02-21T04:32:32.231Z,1019.03
2018-02-21T04:33:12.803Z,1019.03
2018-02-21T04:33:53.372Z,1019
2018-02-21T04:34:33.896Z,1018.99
2018-02-21T04:35:14.452Z,1019.05
2018-02-21T04:35:55.015Z,1019.03
2018-02-21T04:36:35.568Z,1019.08
2018-02-21T04:37:16.117Z,1018.99
2018-02-21T04:37:56.663Z,1018.99
2018-02-21T04:38:37.210Z,1019.03
2018-02-21T04:39:17.777Z,1018.99
2018-02-21T04:39:58.316Z,1019
2018-02-21T04:40:38.867Z,1018.97
2018-02-21T04:41:19.423Z,1018.92
2018-02-21T04:41:59.966Z,1018.95
2018-02-21T04:42:40.527Z,1018.95
2018-02-21T04:43:21.080Z,1018.89
2018-02-21T04:44:01.652Z,1018.94
2018-02-21T04:44:42.198Z,1018.92
2018-02-21T04:45:22.803Z,1018.9
2018-02-21T04:46:03.398Z,1018.93
2018-02-21T04:46:43.937Z,1018.99
2018-02-21T04:47:24.502Z,1018.95
2018-02-21T04:48:05.036Z,1018.96
2018-02-21T04:48:45.595Z,1018.99
2018-02-21T04:49:26.132Z,1018.96
2018-02-21T04:50:06.714Z,1018.95
2018-02-21T04:50:47.300Z,1018.94
2018-02-21T04:51:27.800Z,1018.98
2018-02-21T04:52:08.397Z,1019
2018-02-21T04:52:48.964Z,1018.98
2018-02-21T04:53:29.531Z,1019
2018-02-21T04:54:10.094Z,1019.07
2018-02-21T04:54:50.645Z,1019.04
2018-02-21T04:55:31.194Z,1019.09
2018-02-21T04:56:11.753Z,1019.07
2018-02-21T04:56:52.329Z,1019.06
2018-02-21T04:57:32.887Z,1019.05
2018-02-21T04:58:13.458Z,1019.07
2018-02-21T04:58:54.010Z,1019.13
2018-02-21T04:59:34.638Z,1019.1
2018-02-21T05:00:15.185Z,1019.15
2018-02-21T05:00:55.740Z,1019.16
2018-02-21T05:01:36.297Z,1019.18
2018-02-21T05:02:16.848Z,1019.14
2018-02-21T05:02:57.426Z,1019.14
2018-02-21T05:03:37.991Z,1019.18
2018-02-21T05:04:18.553Z,1019.17
2018-02-21T05:04:59.093Z,1019.16
2018-02-21T05:05:39.648Z,1019.18
2018-02-21T05:06:20.225Z,1019.17
2018-02-21T05:07:00.794Z,1019.19
2018-02-21T05:07:41.421Z,1019.17
2018-02-21T05:08:21.975Z,1019.2
2018-02-21T05:09:02.524Z,1019.18
2018-02-21T05:09:43.117Z,1019.16
2018-02-21T05:10:23.714Z,1019.17
2018-02-21T05:11:04.278Z,1019.11
2018-02-21T05:11:44.865Z,1019.12
2018-02-21T05:12:25.415Z,1019.17
2018-02-21T05:13:05.952Z,1019.16
2018-02-21T05:13:46.509Z,1019.14
2018-02-21T05:14:27.063Z,1019.18
2018-02-21T05:15:07.614Z,1019.15
2018-02-21T05:15:48.145Z,1019.18
2018-02-21T05:16:28.702Z,1019.2
2018-02-21T05:17:09.244Z,1019.25
2018-02-21T05:17:49.807Z,1019.23
2018-02-21T05:18:30.378Z,1019.23
2018-02-21T05:19:10.930Z,1019.29
2018-02-21T05:19:51.478Z,1019.31
2018-02-21T05:20:32.026Z,1019.31
2018-02-21T05:21:12.587Z,1019.3
2018-02-21T05:21:53.129Z,1019.31
2018-02-21T05:22:33.694Z,1019.33
2018-02-21T05:23:14.263Z,1019.31
2018-02-21T05:23:54.832Z,1019.35
2018-02-21T05:24:35.419Z,1019.39
2018-02-21T05:25:15.953Z,1019.34
2018-02-21T05:25:56.539Z,1019.39
2018-02-21T05:26:37.087Z,1019.38
2018-02-21T05:27:17.621Z,1019.44
2018-02-21T05:27:58.161Z,1019.45
2018-02-21T05:28:38.726Z,1019.45
2018-02-21T05:29:19.259Z,1019.5
2018-02-21T05:29:59.836Z,1019.48
2018-02-21T05:30:40.377Z,1019.52
2018-02-21T05:31:20.920Z,1019.46
2018-02-21T05:32:01.471Z,1019.49
2018-02-21T05:32:42.013Z,1019.46
2018-02-21T05:33:22.564Z,1019.45
2018-02-21T05:34:03.117Z,1019.45
2018-02-21T05:34:43.670Z,1019.45
2018-02-21T05:35:24.244Z,1019.45
2018-02-21T05:36:04.845Z,1019.43
2018-02-21T05:36:45.346Z,1019.41
2018-02-21T05:37:25.902Z,1019.43
2018-02-21T05:38:06.451Z,1019.38
2018-02-21T05:38:46.979Z,1019.46
2018-02-21T05:39:27.532Z,1019.41
2018-02-21T05:40:08.096Z,1019.44
2018-02-21T05:40:48.664Z,1019.49
2018-02-21T05:41:29.216Z,1019.46
2018-02-21T05:42:09.752Z,1019.55
2018-02-21T05:42:50.332Z,1019.54
2018-02-21T05:43:30.915Z,1019.59
2018-02-21T05:44:11.494Z,1019.61
2018-02-21T05:44:52.040Z,1019.61
2018-02-21T05:45:32.604Z,1019.62
2018-02-21T05:46:13.189Z,1019.66
2018-02-21T05:46:53.910Z,1019.65
2018-02-21T05:47:34.473Z,1019.67
2018-02-21T05:48:15.096Z,1019.69
2018-02-21T05:48:55.698Z,1019.65
2018-02-21T05:49:36.251Z,1019.64
2018-02-21T05:50:16.798Z,1019.69
2018-02-21T05:50:57.350Z,1019.67
2018-02-21T05:51:37.897Z,1019.66
2018-02-21T05:52:18.437Z,1019.68
2018-02-21T05:52:58.994Z,1019.66
2018-02-21T05:53:39.535Z,1019.64
2018-02-21T05:54:20.124Z,1019.68
2018-02-21T05:55:00.674Z,1019.67
2018-02-21T05:55:41.226Z,1019.66
2018-02-21T05:56:21.770Z,1019.71
2018-02-21T05:57:02.321Z,1019.69
2018-02-21T05:57:42.885Z,1019.69
2018-02-21T05:58:23.496Z,1019.74
2018-02-21T05:59:04.035Z,1019.74
2018-02-21T05:59:44.756Z,1019.74
2018-02-21T06:00:25.365Z,1019.76
2018-02-21T06:01:05.968Z,1019.79
2018-02-21T06:01:46.475Z,1019.8
2018-02-21T06:02:27.127Z,1019.82
2018-02-21T06:03:07.677Z,1019.85
2018-02-21T06:03:48.239Z,1019.84
2018-02-21T06:04:28.840Z,1019.83
2018-02-21T06:05:09.424Z,1019.84
2018-02-21T06:05:49.935Z,1019.81
2018-02-21T06:06:30.527Z,1019.79
2018-02-21T06:07:11.076Z,1019.8
2018-02-21T06:07:51.635Z,1019.78
2018-02-21T06:08:32.325Z,1019.81
2018-02-21T06:09:12.883Z,1019.83
2018-02-21T06:09:53.506Z,1019.81
2018-02-21T06:10:34.045Z,1019.79
2018-02-21T06:11:16.022Z,1019.8
2018-02-21T06:11:56.527Z,1019.82
2018-02-21T06:12:37.185Z,1019.84
2018-02-21T06:13:18.868Z,1019.83
2018-02-21T06:13:59.220Z,1019.84
2018-02-21T06:14:39.765Z,1019.84
2018-02-21T06:15:20.339Z,1019.84
2018-02-21T06:16:00.882Z,1019.86
2018-02-21T06:16:41.444Z,1019.85
2018-02-21T06:17:22.031Z,1019.8
2018-02-21T06:18:02.561Z,1019.86
2018-02-21T06:18:43.117Z,1019.78
2018-02-21T06:19:23.728Z,1019.87
2018-02-21T06:20:04.390Z,1019.87
2018-02-21T06:20:44.928Z,1019.85
2018-02-21T06:21:25.478Z,1019.85
2018-02-21T06:22:06.029Z,1019.84
2018-02-21T06:22:46.543Z,1019.85
2018-02-21T06:23:27.088Z,1019.84
2018-02-21T06:24:07.639Z,1019.79
2018-02-21T06:24:48.283Z,1019.8
2018-02-21T06:25:28.813Z,1019.82
2018-02-21T06:26:09.404Z,1019.79
2018-02-21T06:26:49.954Z,1019.8
2018-02-21T06:27:30.503Z,1019.77
2018-02-21T06:28:11.055Z,1019.76
2018-02-21T06:28:51.597Z,1019.77
2018-02-21T06:29:32.141Z,1019.77
2018-02-21T06:30:12.685Z,1019.71
2018-02-21T06:30:53.224Z,1019.76
2018-02-21T06:31:33.789Z,1019.78
2018-02-21T06:32:14.363Z,1019.74
2018-02-21T06:32:54.925Z,1019.74
2018-02-21T06:33:35.622Z,1019.72
2018-02-21T06:34:16.224Z,1019.72
2018-02-21T06:34:56.779Z,1019.77
2018-02-21T06:35:37.325Z,1019.73
2018-02-21T06:36:17.876Z,1019.74
2018-02-21T06:36:58.417Z,1019.73
2018-02-21T06:37:38.972Z,1019.71
2018-02-21T06:38:19.523Z,1019.71
2018-02-21T06:39:00.092Z,1019.73
2018-02-21T06:39:40.670Z,1019.75
2018-02-21T06:40:21.185Z,1019.75
2018-02-21T06:41:01.723Z,1019.72
2018-02-21T06:41:42.280Z,1019.73
2018-02-21T06:42:22.902Z,1019.75
2018-02-21T06:43:03.531Z,1019.72
2018-02-21T06:43:44.086Z,1019.76
2018-02-21T06:44:24.664Z,1019.71
2018-02-21T06:45:05.266Z,1019.75
2018-02-21T06:45:45.835Z,1019.76
2018-02-21T06:46:26.436Z,1019.75
2018-02-21T06:47:07.135Z,1019.74
2018-02-21T06:47:47.686Z,1019.78
2018-02-21T06:48:28.340Z,1019.79
2018-02-21T06:49:08.901Z,1019.76
2018-02-21T06:49:49.436Z,1019.78
2018-02-21T06:50:29.995Z,1019.83
2018-02-21T06:51:10.632Z,1019.89
2018-02-21T06:51:51.450Z,1019.84
2018-02-21T06:52:32.006Z,1019.88
2018-02-21T06:53:12.566Z,1019.9
2018-02-21T06:53:53.118Z,1019.91
2018-02-21T06:54:33.702Z,1019.92
2018-02-21T06:55:14.239Z,1019.95
2018-02-21T06:55:54.776Z,1019.94
2018-02-21T06:56:35.442Z,1019.93
2018-02-21T06:57:16.082Z,1019.95
2018-02-21T06:57:56.646Z,1019.99
2018-02-21T06:58:37.652Z,1019.99
2018-02-21T06:59:18.545Z,1019.98
2018-02-21T06:59:59.217Z,1019.99
2018-02-21T07:00:39.696Z,1020
2018-02-21T07:01:20.235Z,1020
2018-02-21T07:02:00.786Z,1020
2018-02-21T07:02:41.348Z,1019.99
2018-02-21T07:03:21.904Z,1020.03
2018-02-21T07:04:02.475Z,1019.98
2018-02-21T07:04:43.065Z,1020.07
2018-02-21T07:05:23.609Z,1020.07
2018-02-21T07:06:04.421Z,1020.03
2018-02-21T07:06:44.992Z,1020.02
2018-02-21T07:07:25.551Z,1020.05
2018-02-21T07:08:06.129Z,1020.03
2018-02-21T07:08:46.686Z,1020.01
2018-02-21T07:09:27.217Z,1020.01
2018-02-21T07:10:07.808Z,1020.01
2018-02-21T07:10:48.354Z,1020.01
2018-02-21T07:11:28.899Z,1020.01
2018-02-21T07:12:09.508Z,1020.01
2018-02-21T07:12:50.066Z,1020.04
2018-02-21T07:13:30.915Z,1020.12
2018-02-21T07:14:11.492Z,1020.03
2018-02-21T07:14:52.148Z,1020.08
2018-02-21T07:15:32.757Z,1020.01
2018-02-21T07:16:13.246Z,1020.05
2018-02-21T07:16:53.804Z,1020.05
2018-02-21T07:17:34.369Z,1020.02
2018-02-21T07:18:14.940Z,1020.06
2018-02-21T07:18:55.589Z,1020.09
2018-02-21T07:19:37.234Z,1020.13
2018-02-21T07:20:17.988Z,1020.09
2018-02-21T07:20:58.539Z,1020.11
2018-02-21T07:21:39.091Z,1020.08
2018-02-21T07:22:19.684Z,1020.08
2018-02-21T07:23:00.498Z,1020.06
2018-02-21T07:23:41.030Z,1020.11
2018-02-21T07:24:22.131Z,1020.14
2018-02-21T07:25:04.086Z,1020.15
2018-02-21T07:25:43.904Z,1020.14
2018-02-21T07:26:24.799Z,1020.13
2018-02-21T07:27:05.672Z,1020.16
2018-02-21T07:27:46.268Z,1020.17
2018-02-21T07:28:26.844Z,1020.2
2018-02-21T07:29:07.442Z,1020.15
2018-02-21T07:29:48.583Z,1020.17
2018-02-21T07:30:29.700Z,1020.17
2018-02-21T07:31:10.280Z,1020.19
2018-02-21T07:31:50.927Z,1020.19
2018-02-21T07:32:32.177Z,1020.19
2018-02-21T07:33:13.225Z,1020.22
2018-02-21T07:33:53.905Z,1020.21
2018-02-21T07:34:34.376Z,1020.18
2018-02-21T07:35:15.223Z,1020.2
2018-02-21T07:35:58.565Z,1020.17
2018-02-21T07:36:38.763Z,1020.2
2018-02-21T07:37:19.550Z,1020.15
2018-02-21T07:38:00.157Z,1020.19
2018-02-21T07:38:40.734Z,1020.19
2018-02-21T07:39:21.273Z,1020.18
2018-02-21T07:40:01.830Z,1020.21
2018-02-21T07:40:42.473Z,1020.22
2018-02-21T07:41:23.217Z,1020.23
2018-02-21T07:42:05.777Z,1020.24
2018-02-21T07:42:46.575Z,1020.19
2018-02-21T07:43:27.330Z,1020.23
2018-02-21T07:44:08.846Z,1020.24
2018-02-21T07:44:49.719Z,1020.24
2018-02-21T07:45:30.811Z,1020.24
2018-02-21T07:46:12.113Z,1020.22
2018-02-21T07:46:53.071Z,1020.26
2018-02-21T07:47:34.245Z,1020.3
2018-02-21T07:48:16.647Z,1020.27
2018-02-21T07:48:57.496Z,1020.27
2018-02-21T07:49:38.471Z,1020.28
2018-02-21T07:50:19.217Z,1020.27
2018-02-21T07:50:59.902Z,1020.31
2018-02-21T07:51:40.477Z,1020.28
2018-02-21T07:52:21.022Z,1020.29
2018-02-21T07:53:01.562Z,1020.3
2018-02-21T07:53:42.140Z,1020.29
2018-02-21T07:54:22.712Z,1020.32
2018-02-21T07:55:03.392Z,1020.34
2018-02-21T07:55:43.949Z,1020.28
2018-02-21T07:56:24.610Z,1020.31
2018-02-21T07:57:06.887Z,1020.34
2018-02-21T07:57:48.021Z,1020.33
2018-02-21T07:58:29.182Z,1020.32
2018-02-21T07:59:10.287Z,1020.3
2018-02-21T07:59:51.472Z,1020.33
2018-02-21T08:00:32.181Z,1020.37
2018-02-21T08:01:13.481Z,1020.36
2018-02-21T08:01:54.399Z,1020.35
2018-02-21T08:02:34.991Z,1020.37
2018-02-21T08:03:15.560Z,1020.34
2018-02-21T08:03:57.130Z,1020.33
2018-02-21T08:04:40.100Z,1020.37
2018-02-21T08:05:21.759Z,1020.32
2018-02-21T08:06:02.839Z,1020.31
2018-02-21T08:06:43.662Z,1020.31
2018-02-21T08:07:24.199Z,1020.32
2018-02-21T08:08:04.800Z,1020.25
2018-02-21T08:08:45.690Z,1020.27
2018-02-21T08:09:26.844Z,1020.27
2018-02-21T08:10:07.666Z,1020.26
2018-02-21T08:10:48.204Z,1020.27
2018-02-21T08:11:28.791Z,1020.29
2018-02-21T08:12:09.349Z,1020.32
2018-02-21T08:12:49.909Z,1020.32